Time;durP1;ratioP1;P1;durP2;ratioP2;P2;SDS_P1;SDS_P2;PMS_P1;PMS_P2;Temp;Humidity;BMP_temperature;BMP_pressure;BME280_temperature;BME280_humidity;BME280_pressure;Samples;Min_cycle;Max_cycle;Signal;HPM_P1;HPM_P2
2022/06/13 00:00:21;;;;;;;8.32;2.97;;;12.40;99.90;;;;;;5066731;28;20040;-63
2022/06/13 00:02:47;;;;;;;15.82;4.10;;;12.40;99.90;;;;;;5064295;28;20498;-68
2022/06/13 00:05:15;;;;;;;10.52;3.22;;;12.40;99.90;;;;;;5066734;28;20048;-67
2022/06/13 00:07:41;;;;;;;12.90;3.50;;;12.40;99.90;;;;;;5063491;28;20051;-69
2022/06/13 00:10:08;;;;;;;15.77;3.75;;;12.40;99.90;;;;;;5066427;28;20052;-70
2022/06/13 00:12:33;;;;;;;12.82;3.88;;;12.40;99.90;;;;;;5050060;28;20048;-70
2022/06/13 00:14:59;;;;;;;11.68;3.72;;;12.40;99.90;;;;;;5067069;28;20047;-72
2022/06/13 00:17:25;;;;;;;14.20;3.83;;;12.30;99.90;;;;;;5042217;28;20056;-67
2022/06/13 00:19:51;;;;;;;12.02;4.00;;;12.30;99.90;;;;;;5066475;28;20123;-70
2022/06/13 00:22:17;;;;;;;16.67;4.68;;;12.30;99.90;;;;;;5066491;28;20044;-69
2022/06/13 00:24:44;;;;;;;15.05;4.30;;;12.30;99.90;;;;;;5066451;28;20132;-71
2022/06/13 00:27:10;;;;;;;13.90;3.70;;;12.30;99.90;;;;;;5048472;28;20087;-64
2022/06/13 00:29:37;;;;;;;11.02;3.30;;;12.20;99.90;;;;;;5050018;28;20513;-67
2022/06/13 00:32:03;;;;;;;8.93;3.28;;;12.20;99.90;;;;;;5066936;28;20063;-69
2022/06/13 00:34:29;;;;;;;14.45;4.20;;;12.20;99.90;;;;;;5066171;28;20040;-68
2022/06/13 00:36:55;;;;;;;12.48;3.75;;;12.20;99.90;;;;;;5065910;28;20055;-69
2022/06/13 00:39:21;;;;;;;14.88;4.65;;;12.20;99.90;;;;;;5060559;28;20059;-68
2022/06/13 00:41:47;;;;;;;15.85;4.18;;;12.20;99.90;;;;;;5049588;28;20211;-71
2022/06/13 00:44:23;;;;;;;14.40;3.80;;;12.20;99.90;;;;;;5049903;28;20136;-71
2022/06/13 00:46:50;;;;;;;13.52;3.17;;;12.10;99.90;;;;;;5063553;28;20127;-65
2022/06/13 00:49:38;;;;;;;11.55;3.83;;;12.10;99.90;;;;;;5066350;28;20086;-71
2022/06/13 00:52:30;;;;;;;17.15;4.97;;;12.10;99.90;;;;;;5085071;28;20361;-64
2022/06/13 00:54:56;;;;;;;14.75;3.90;;;12.10;99.90;;;;;;5067066;28;20051;-69
2022/06/13 00:57:26;;;;;;;13.73;3.55;;;12.10;99.90;;;;;;5054310;28;20378;-69
2022/06/13 00:59:56;;;;;;;12.95;4.70;;;12.10;99.90;;;;;;5054026;28;20048;-66
2022/06/13 01:02:23;;;;;;;13.27;3.53;;;12.10;99.90;;;;;;5070061;28;20136;-64
2022/06/13 01:04:52;;;;;;;10.40;3.40;;;12.10;99.90;;;;;;5070877;28;20116;-68
2022/06/13 01:07:20;;;;;;;8.93;2.97;;;12.10;99.90;;;;;;5039954;28;20040;-64
2022/06/13 01:12:35;;;;;;;13.98;3.20;;;12.10;99.90;;;;;;5070024;28;20052;-69
2022/06/13 01:15:07;;;;;;;11.65;3.35;;;12.20;99.90;;;;;;5070325;28;20509;-64
2022/06/13 01:17:38;;;;;;;11.40;3.60;;;12.20;99.90;;;;;;5067821;28;20052;-63
2022/06/13 01:20:26;;;;;;;10.25;3.03;;;12.20;99.90;;;;;;5070407;28;20051;-71
2022/06/13 01:23:03;;;;;;;13.65;3.50;;;12.30;99.90;;;;;;5056447;28;20105;-73
2022/06/13 01:25:38;;;;;;;12.82;3.40;;;12.30;99.90;;;;;;5070276;28;20109;-61
2022/06/13 01:28:31;;;;;;;14.10;3.63;;;12.40;99.90;;;;;;5069137;28;20048;-62
2022/06/13 01:31:09;;;;;;;13.38;3.60;;;12.40;99.90;;;;;;5060085;28;20143;-67
2022/06/13 01:33:49;;;;;;;11.15;3.28;;;12.50;99.90;;;;;;5070075;28;20091;-62
2022/06/13 01:37:00;;;;;;;15.63;3.83;;;12.50;99.90;;;;;;5069976;28;20066;-68
2022/06/13 01:39:40;;;;;;;15.60;3.78;;;12.50;99.90;;;;;;5026853;28;20136;-64
2022/06/13 01:42:32;;;;;;;13.90;3.72;;;12.60;99.90;;;;;;5068180;28;20062;-62
2022/06/13 01:45:38;;;;;;;13.13;3.67;;;12.60;99.90;;;;;;5053585;28;20052;-64
2022/06/13 01:48:19;;;;;;;18.38;3.92;;;12.60;99.90;;;;;;5053334;28;20052;-62
2022/06/13 01:50:55;;;;;;;12.10;3.75;;;12.60;99.90;;;;;;5068760;28;20088;-68
2022/06/13 01:53:49;;;;;;;13.18;3.58;;;12.60;99.90;;;;;;5066294;28;20076;-67
2022/06/13 01:56:16;;;;;;;15.52;3.45;;;12.70;99.90;;;;;;5069175;28;20044;-62
2022/06/13 01:58:53;;;;;;;12.75;3.70;;;12.70;99.90;;;;;;5050223;28;20049;-70
2022/06/13 02:01:37;;;;;;;12.48;3.45;;;12.70;99.90;;;;;;5060363;28;20097;-64
2022/06/13 02:04:28;;;;;;;14.88;3.72;;;12.60;99.90;;;;;;5056309;28;20197;-69
2022/06/13 02:07:24;;;;;;;12.25;3.45;;;12.60;99.90;;;;;;5068876;28;20127;-68
2022/06/13 02:09:58;;;;;;;12.32;3.97;;;12.50;99.90;;;;;;5069234;28;20051;-61
2022/06/13 02:12:27;;;;;;;11.82;4.35;;;12.50;99.90;;;;;;5049276;28;20125;-67
2022/06/13 02:15:00;;;;;;;12.18;3.88;;;12.50;99.90;;;;;;5069426;28;20047;-68
2022/06/13 02:17:32;;;;;;;19.55;4.10;;;12.40;99.90;;;;;;5068558;28;20508;-62
2022/06/13 02:20:08;;;;;;;13.98;4.07;;;12.40;99.90;;;;;;5069552;28;20059;-70
2022/06/13 02:22:45;;;;;;;14.20;3.63;;;12.40;99.90;;;;;;5052870;28;20334;-64
2022/06/13 02:25:24;;;;;;;18.38;4.13;;;12.40;99.90;;;;;;5052863;28;20078;-63
2022/06/13 02:27:57;;;;;;;17.10;3.40;;;12.50;99.90;;;;;;5052484;28;20044;-65
2022/06/13 02:30:30;;;;;;;11.27;4.45;;;12.60;99.90;;;;;;5087168;28;20913;-73
2022/06/13 02:33:05;;;;;;;11.00;3.58;;;12.60;99.90;;;;;;5067116;28;20058;-70
2022/06/13 02:35:36;;;;;;;12.70;4.63;;;12.70;99.90;;;;;;5068472;28;20043;-61
2022/06/13 02:38:24;;;;;;;19.52;4.38;;;12.80;99.90;;;;;;5068552;28;20177;-68
2022/06/13 02:41:11;;;;;;;15.85;4.25;;;12.90;99.90;;;;;;5069046;28;20122;-64
2022/06/13 02:44:02;;;;;;;15.88;3.85;;;13.00;99.90;;;;;;5063056;28;20044;-71
2022/06/13 02:46:40;;;;;;;16.60;4.25;;;13.10;99.90;;;;;;5051359;28;20051;-68
2022/06/13 02:49:37;;;;;;;15.35;4.18;;;13.10;99.90;;;;;;5068995;28;20541;-63
2022/06/13 02:52:16;;;;;;;17.63;4.45;;;13.10;99.90;;;;;;5048474;28;20078;-69
2022/06/13 02:54:55;;;;;;;15.32;4.05;;;13.10;99.90;;;;;;5068465;28;20122;-66
2022/06/13 02:57:31;;;;;;;14.93;4.38;;;13.10;99.90;;;;;;5056418;28;20048;-68
2022/06/13 03:00:21;;;;;;;15.40;4.03;;;13.10;99.90;;;;;;5051992;28;20131;-62
2022/06/13 03:03:09;;;;;;;15.95;3.75;;;13.10;99.90;;;;;;5066629;28;20060;-61
2022/06/13 03:05:49;;;;;;;15.18;3.90;;;13.10;99.90;;;;;;5067423;28;20597;-62
2022/06/13 03:08:30;;;;;;;15.38;3.65;;;13.10;99.90;;;;;;5086684;28;20044;-70
2022/06/13 03:11:29;;;;;;;15.50;3.78;;;13.00;99.90;;;;;;5066376;28;20468;-71
2022/06/13 03:14:18;;;;;;;14.40;3.70;;;13.00;99.90;;;;;;5049961;28;20054;-68
2022/06/13 03:16:47;;;;;;;10.95;3.28;;;13.00;99.90;;;;;;5051441;28;20386;-63
2022/06/13 03:19:15;;;;;;;;;;;12.90;99.90;;;;;;5068128;28;20154;-64
2022/06/13 03:21:49;;;;;;;8.15;3.35;;;12.90;99.90;;;;;;5067919;28;20038;-67
2022/06/13 03:24:23;;;;;;;18.65;3.42;;;12.90;99.90;;;;;;5050315;28;20048;-63
2022/06/13 03:27:01;;;;;;;14.52;3.53;;;12.90;99.90;;;;;;5051298;28;20127;-70
2022/06/13 03:29:41;;;;;;;11.85;3.35;;;12.90;99.90;;;;;;5060698;28;20070;-61
2022/06/13 03:32:16;;;;;;;9.27;3.55;;;12.90;99.90;;;;;;5051210;28;20051;-61
2022/06/13 03:34:48;;;;;;;10.80;3.63;;;12.90;99.90;;;;;;5066981;28;20643;-60
2022/06/13 03:37:41;;;;;;;15.05;4.07;;;12.90;99.90;;;;;;5048583;28;20048;-71
2022/06/13 03:40:15;;;;;;;12.68;4.07;;;12.80;99.90;;;;;;5067222;28;20093;-61
2022/06/13 03:42:50;;;;;;;10.48;3.65;;;12.80;99.90;;;;;;5066969;28;20426;-69
2022/06/13 03:45:24;;;;;;;12.65;3.83;;;12.80;99.90;;;;;;5068163;28;20051;-69
2022/06/13 03:47:56;;;;;;;14.40;4.82;;;12.80;99.90;;;;;;5062677;28;20048;-63
2022/06/13 03:50:28;;;;;;;13.30;3.55;;;12.70;99.90;;;;;;5049943;28;20037;-69
2022/06/13 03:53:09;;;;;;;18.98;4.30;;;12.80;99.90;;;;;;5064111;28;20502;-67
2022/06/13 03:55:43;;;;;;;14.35;4.10;;;12.80;99.90;;;;;;5064213;28;20076;-71
2022/06/13 03:58:24;;;;;;;15.88;4.45;;;12.80;99.90;;;;;;5065551;28;20394;-62
2022/06/13 04:01:17;;;;;;;9.18;3.47;;;12.70;99.90;;;;;;5085209;28;20051;-68
2022/06/13 04:03:43;;;;;;;10.23;3.70;;;12.80;99.90;;;;;;5050199;28;20135;-66
2022/06/13 04:06:30;;;;;;;19.70;3.78;;;12.70;99.90;;;;;;5067015;28;20047;-64
2022/06/13 04:08:56;;;;;;;14.05;3.50;;;12.80;99.90;;;;;;5048429;28;20043;-62
2022/06/13 04:11:52;;;;;;;13.10;3.08;;;12.80;99.90;;;;;;5067896;28;20056;-72
2022/06/13 04:14:40;;;;;;;12.18;3.00;;;12.80;99.90;;;;;;5067195;28;20047;-64
2022/06/13 04:17:21;;;;;;;10.82;3.55;;;12.80;99.90;;;;;;5067543;28;20092;-64
2022/06/13 04:20:06;;;;;;;9.80;2.67;;;12.90;99.90;;;;;;5053598;28;20044;-65
2022/06/13 04:22:52;;;;;;;9.15;2.38;;;13.00;99.90;;;;;;5066350;28;20055;-63
2022/06/13 04:25:42;;;;;;;8.32;2.60;;;13.10;99.90;;;;;;5067202;28;20101;-72
2022/06/13 04:28:30;;;;;;;14.35;4.45;;;13.10;99.90;;;;;;5050230;28;20079;-70
2022/06/13 04:30:59;;;;;;;7.53;2.45;;;13.10;99.90;;;;;;5054575;28;20056;-71
2022/06/13 04:33:33;;;;;;;9.70;2.85;;;13.20;99.90;;;;;;5067339;28;20113;-68
2022/06/13 04:36:01;;;;;;;7.82;2.45;;;13.20;99.90;;;;;;5067266;28;20056;-64
2022/06/13 04:38:27;;;;;;;10.13;2.90;;;13.20;99.90;;;;;;5067494;28;20056;-69
2022/06/13 04:41:03;;;;;;;7.65;2.50;;;13.30;99.90;;;;;;5065286;28;20109;-65
2022/06/13 04:43:35;;;;;;;10.52;2.42;;;13.40;99.90;;;;;;5065350;28;20055;-73
2022/06/13 04:46:14;;;;;;;15.85;3.92;;;13.40;99.90;;;;;;5084644;28;20048;-69
2022/06/13 04:48:42;;;;;;;9.80;2.40;;;13.50;99.90;;;;;;5084268;28;20043;-72
2022/06/13 04:51:18;;;;;;;8.40;2.03;;;13.70;99.90;;;;;;5064852;28;20036;-67
2022/06/13 04:54:02;;;;;;;7.90;2.35;;;13.80;99.90;;;;;;5066186;28;20398;-71
2022/06/13 04:56:29;;;;;;;7.65;2.40;;;13.80;99.90;;;;;;5066189;28;20109;-71
2022/06/13 04:58:57;;;;;;;11.38;3.00;;;13.90;99.90;;;;;;5066173;28;20040;-72
2022/06/13 05:01:29;;;;;;;5.47;2.22;;;14.00;99.90;;;;;;5061607;28;20048;-62
2022/06/13 05:03:59;;;;;;;8.73;2.35;;;14.20;99.90;;;;;;5066145;28;20051;-70
2022/06/13 05:06:33;;;;;;;11.02;2.38;;;14.70;99.90;;;;;;5084499;28;20510;-69
2022/06/13 05:09:08;;;;;;;13.57;2.20;;;15.20;99.90;;;;;;5065747;28;20542;-66
2022/06/13 05:11:40;;;;;;;12.90;2.40;;;15.00;99.90;;;;;;5063859;28;20040;-68
2022/06/13 05:14:21;;;;;;;6.32;1.90;;;14.90;99.90;;;;;;5066398;28;20040;-67
2022/06/13 05:17:23;;;;;;;11.48;2.13;;;14.70;99.90;;;;;;5066029;28;20551;-64
2022/06/13 05:19:52;;;;;;;9.60;2.42;;;14.50;99.90;;;;;;5052344;28;20048;-63
2022/06/13 05:22:30;;;;;;;10.10;2.50;;;14.40;99.90;;;;;;5064572;28;20212;-66
2022/06/13 05:25:15;;;;;;;14.27;2.70;;;14.20;99.90;;;;;;5066228;28;20055;-71
2022/06/13 05:27:40;;;;;;;6.80;2.42;;;14.10;99.90;;;;;;5066119;28;20064;-69
2022/06/13 05:30:11;;;;;;;7.00;2.70;;;14.00;99.90;;;;;;5076209;28;20056;-66
2022/06/13 05:32:36;;;;;;;8.45;4.97;;;13.70;99.90;;;;;;5083601;28;20048;-67
2022/06/13 05:35:03;;;;;;;10.20;3.03;;;13.30;99.90;;;;;;5066386;28;20383;-65
2022/06/13 05:37:29;;;;;;;2.20;1.27;;;13.20;99.90;;;;;;5084568;28;20498;-62
2022/06/13 05:39:56;;;;;;;6.25;2.15;;;13.00;99.90;;;;;;5083270;28;20044;-68
2022/06/13 05:42:22;;;;;;;2.13;0.65;;;12.90;99.90;;;;;;5067691;28;20092;-71
2022/06/13 05:44:48;;;;;;;6.68;0.80;;;12.80;99.90;;;;;;5069626;28;20055;-67
2022/06/13 05:47:18;;;;;;;0.85;0.60;;;12.80;99.90;;;;;;5070176;28;20044;-67
2022/06/13 05:49:45;;;;;;;2.05;0.85;;;12.90;99.90;;;;;;5069190;28;20347;-67
2022/06/13 05:52:11;;;;;;;2.95;1.05;;;13.00;99.90;;;;;;5056944;28;20048;-68
2022/06/13 05:54:40;;;;;;;2.40;0.63;;;13.20;99.90;;;;;;5087893;28;20040;-63
2022/06/13 05:57:06;;;;;;;1.42;0.82;;;13.30;99.90;;;;;;5069430;28;20224;-67
2022/06/13 05:59:31;;;;;;;4.18;0.98;;;13.30;99.90;;;;;;5053126;28;20052;-68
2022/06/13 06:01:57;;;;;;;6.07;1.25;;;13.30;99.90;;;;;;5048486;28;20060;-63
2022/06/13 06:04:23;;;;;;;2.67;0.90;;;13.30;99.90;;;;;;5069787;28;20046;-61
2022/06/13 06:06:49;;;;;;;2.00;0.70;;;13.30;99.90;;;;;;5052828;28;20098;-64
2022/06/13 06:09:15;;;;;;;2.58;1.10;;;13.40;99.90;;;;;;5053219;28;20400;-64
2022/06/13 06:11:41;;;;;;;3.28;1.05;;;13.50;99.90;;;;;;5060519;28;20511;-65
2022/06/13 06:14:07;;;;;;;4.53;1.10;;;13.60;99.90;;;;;;5069443;28;20518;-63
2022/06/13 06:16:33;;;;;;;2.55;0.88;;;13.80;99.90;;;;;;5050368;28;20090;-64
2022/06/13 06:18:59;;;;;;;8.82;1.40;;;13.90;99.90;;;;;;5062825;28;20387;-70
2022/06/13 06:21:28;;;;;;;4.32;1.08;;;14.00;99.90;;;;;;5086336;28;20051;-70
2022/06/13 06:23:53;;;;;;;3.67;1.40;;;14.10;99.90;;;;;;5067621;28;20052;-65
2022/06/13 06:26:23;;;;;;;6.18;1.35;;;14.20;99.90;;;;;;5066357;28;20108;-64
2022/06/13 06:28:49;;;;;;;5.13;1.08;;;14.30;99.90;;;;;;5066221;28;20128;-72
2022/06/13 06:31:15;;;;;;;3.78;1.30;;;14.40;99.90;;;;;;5065564;28;20052;-70
2022/06/13 06:33:44;;;;;;;4.65;0.85;;;14.50;99.90;;;;;;5050397;28;20117;-67
2022/06/13 06:36:13;;;;;;;4.68;1.20;;;14.50;99.90;;;;;;5083798;28;20052;-68
2022/06/13 06:38:39;;;;;;;5.25;0.88;;;14.50;99.90;;;;;;5064854;28;20049;-66
2022/06/13 06:41:05;;;;;;;7.28;1.70;;;14.70;99.90;;;;;;5048022;28;20054;-69
2022/06/13 06:43:31;;;;;;;4.68;1.13;;;14.80;99.90;;;;;;5086469;28;20071;-70
2022/06/13 06:45:57;;;;;;;8.02;1.40;;;14.90;99.90;;;;;;5083531;28;20071;-68
2022/06/13 06:48:24;;;;;;;8.50;1.30;;;14.80;99.90;;;;;;5051872;28;20040;-66
2022/06/13 06:50:51;;;;;;;2.83;0.95;;;14.70;99.90;;;;;;5049938;28;20044;-61
2022/06/13 06:53:20;;;;;;;5.38;1.13;;;14.40;99.90;;;;;;5086213;28;20048;-69
2022/06/13 07:01:19;;;;;;;4.00;1.10;;;14.00;99.90;;;;;;5067566;28;20107;-66
2022/06/13 07:03:45;;;;;;;3.08;0.88;;;13.80;99.90;;;;;;5063935;28;20399;-71
2022/06/13 07:06:13;;;;;;;1.88;0.80;;;13.60;99.90;;;;;;5064614;28;20070;-74
2022/06/13 07:08:39;;;;;;;6.93;1.00;;;13.50;99.90;;;;;;5054593;28;20044;-66
2022/06/13 07:14:08;;;;;;;1.05;0.45;;;13.20;99.90;;;;;;5068329;28;20060;-70
2022/06/13 07:16:34;;;;;;;4.95;1.00;;;13.20;99.90;;;;;;5066058;28;20450;-68
2022/06/13 07:19:00;;;;;;;4.38;1.02;;;13.20;99.90;;;;;;5063646;28;20059;-76
2022/06/13 07:21:25;;;;;;;4.85;0.80;;;13.30;99.90;;;;;;5049755;28;20055;-71
2022/06/13 07:23:52;;;;;;;2.85;0.80;;;13.50;99.90;;;;;;5050706;28;20051;-70
2022/06/13 07:26:18;;;;;;;8.73;0.93;;;14.10;99.90;;;;;;5049688;28;20635;-75
2022/06/13 07:28:44;;;;;;;6.40;1.20;;;14.60;99.90;;;;;;5060939;28;20052;-75
2022/06/13 07:31:19;;;;;;;2.10;0.70;;;15.10;99.90;;;;;;5048598;28;20044;-75
2022/06/13 07:33:48;;;;;;;5.78;1.00;;;15.60;99.90;;;;;;5066149;28;20051;-71
2022/06/13 07:36:14;;;;;;;3.97;0.90;;;15.80;99.90;;;;;;5047208;28;20043;-74
2022/06/13 07:38:40;;;;;;;2.83;0.73;;;15.80;99.90;;;;;;5066963;28;20406;-70
2022/06/13 07:41:06;;;;;;;7.00;1.20;;;15.50;99.90;;;;;;5065820;28;20052;-72
2022/06/13 07:43:38;;;;;;;5.18;0.82;;;15.40;99.90;;;;;;5061532;28;20059;-67
2022/06/13 07:46:06;;;;;;;3.92;0.82;;;15.40;99.90;;;;;;5049995;28;20059;-70
2022/06/13 07:48:33;;;;;;;3.58;0.90;;;15.30;99.90;;;;;;5063877;28;20478;-72
2022/06/13 07:50:59;;;;;;;3.45;0.98;;;15.10;99.90;;;;;;5048069;28;20095;-71
2022/06/13 07:53:25;;;;;;;4.90;1.13;;;14.80;99.90;;;;;;5050054;28;20656;-63
2022/06/13 07:55:51;;;;;;;3.05;0.85;;;14.60;99.90;;;;;;5049722;28;20044;-69
2022/06/13 07:58:31;;;;;;;2.40;0.75;;;14.40;99.90;;;;;;5077208;28;20052;-70
2022/06/13 08:00:57;;;;;;;2.35;0.95;;;14.30;99.90;;;;;;5065236;28;20170;-67
2022/06/13 08:03:27;;;;;;;2.67;1.30;;;14.20;99.90;;;;;;5065235;28;20044;-73
2022/06/13 08:05:53;;;;;;;3.75;0.80;;;14.40;99.90;;;;;;5065495;28;20567;-70
2022/06/13 08:08:19;;;;;;;6.13;1.00;;;15.00;99.90;;;;;;5064219;28;20084;-66
2022/06/13 08:10:52;;;;;;;6.55;1.13;;;15.60;99.90;;;;;;5064329;28;20162;-71
2022/06/13 08:13:20;;;;;;;4.38;0.95;;;16.10;99.90;;;;;;5050048;28;20059;-73
2022/06/13 08:15:47;;;;;;;2.33;0.90;;;16.30;99.90;;;;;;5064403;28;20089;-71
2022/06/13 08:18:14;;;;;;;9.98;1.80;;;16.50;99.90;;;;;;5048201;28;20050;-65
2022/06/13 08:20:42;;;;;;;11.80;2.42;;;16.70;99.90;;;;;;5032717;28;20044;-67
2022/06/13 08:23:13;;;;;;;5.95;1.73;;;16.80;99.90;;;;;;5049497;28;20414;-67
2022/06/13 08:25:41;;;;;;;5.45;0.90;;;16.90;99.90;;;;;;5056223;28;20067;-74
2022/06/13 08:28:09;;;;;;;4.97;1.40;;;16.90;99.90;;;;;;5046607;28;20079;-69
2022/06/13 08:30:43;;;;;;;3.60;1.10;;;16.70;99.90;;;;;;5044080;28;20036;-72
2022/06/13 08:33:09;;;;;;;4.93;1.65;;;16.70;99.90;;;;;;5066495;28;20124;-70
2022/06/13 08:35:35;;;;;;;3.03;1.15;;;16.90;99.90;;;;;;5066813;28;20131;-65
2022/06/13 08:38:05;;;;;;;7.63;1.67;;;16.60;99.90;;;;;;5066443;28;20036;-73
2022/06/13 08:41:00;;;;;;;6.10;1.30;;;16.50;99.90;;;;;;5066084;28;20609;-71
2022/06/13 08:43:45;;;;;;;2.85;1.13;;;16.40;99.90;;;;;;5037088;28;20091;-74
2022/06/13 08:46:34;;;;;;;3.42;1.08;;;16.60;99.90;;;;;;5064163;28;20051;-63
2022/06/13 08:49:23;;;;;;;5.07;1.40;;;16.20;99.90;;;;;;5049520;28;20054;-69
2022/06/13 08:52:14;;;;;;;4.88;1.30;;;16.10;99.90;;;;;;5055604;28;20123;-73
2022/06/13 08:54:42;;;;;;;6.93;1.20;;;15.70;99.90;;;;;;4995701;28;20126;-70
2022/06/13 08:57:12;;;;;;;9.43;1.58;;;15.70;99.90;;;;;;5045527;28;20044;-73
2022/06/13 08:59:47;;;;;;;4.13;1.20;;;15.70;99.90;;;;;;5037705;28;20059;-68
2022/06/13 09:02:16;;;;;;;3.45;1.20;;;15.50;99.90;;;;;;5063564;28;20426;-67
2022/06/13 09:04:48;;;;;;;4.90;1.40;;;15.30;99.90;;;;;;5066638;28;20123;-68
2022/06/13 09:07:21;;;;;;;5.80;1.60;;;15.50;99.90;;;;;;5051705;28;20411;-68
2022/06/13 09:10:25;;;;;;;5.18;1.00;;;16.20;99.90;;;;;;5067509;28;20484;-64
2022/06/13 09:12:57;;;;;;;5.38;1.48;;;16.80;96.90;;;;;;5050493;28;20121;-64
2022/06/13 09:15:33;;;;;;;5.72;0.95;;;17.00;99.90;;;;;;5066448;28;20048;-69
2022/06/13 09:18:05;;;;;;;10.40;1.38;;;16.70;98.30;;;;;;5047218;28;20086;-68
2022/06/13 09:21:04;;;;;;;4.85;1.13;;;16.20;99.20;;;;;;5053048;28;20036;-69
2022/06/13 09:23:55;;;;;;;3.22;0.90;;;15.70;99.90;;;;;;5085029;28;20136;-67
2022/06/13 09:26:29;;;;;;;7.80;1.08;;;15.40;99.90;;;;;;5068122;28;20433;-72
2022/06/13 09:29:18;;;;;;;2.78;0.77;;;15.50;99.90;;;;;;5052611;28;20052;-61
2022/06/13 09:31:50;;;;;;;4.53;1.40;;;15.70;99.90;;;;;;5070053;28;20060;-71
2022/06/13 09:34:41;;;;;;;2.45;1.05;;;15.70;99.90;;;;;;5051561;28;20051;-72
2022/06/13 09:37:10;;;;;;;11.35;1.77;;;15.50;99.90;;;;;;5069339;28;20048;-67
2022/06/13 09:39:37;;;;;;;3.38;1.17;;;15.60;99.90;;;;;;5053515;28;20071;-74
2022/06/13 09:42:37;;;;;;;4.35;1.13;;;15.80;99.90;;;;;;5070906;28;20048;-68
2022/06/13 09:45:13;;;;;;;3.25;1.25;;;16.10;99.90;;;;;;5062564;28;20698;-67
2022/06/13 09:48:14;;;;;;;4.03;1.42;;;16.40;99.90;;;;;;5052661;28;20036;-61
2022/06/13 09:50:57;;;;;;;6.63;1.75;;;16.80;97.50;;;;;;5073593;28;20058;-67
2022/06/13 09:53:33;;;;;;;5.30;1.40;;;16.80;98.30;;;;;;5069318;28;20048;-66
2022/06/13 09:56:36;;;;;;;3.83;1.02;;;16.90;97.40;;;;;;5084214;28;20473;-70
2022/06/13 09:59:14;;;;;;;13.02;1.67;;;16.70;99.00;;;;;;5049618;28;20036;-65
2022/06/13 10:01:51;;;;;;;4.80;1.58;;;16.20;97.40;;;;;;5049606;28;20060;-67
2022/06/13 10:04:48;;;;;;;4.97;1.48;;;15.90;99.90;;;;;;5066920;28;20058;-70
2022/06/13 10:07:22;;;;;;;7.03;1.60;;;16.10;99.90;;;;;;5053875;28;20147;-69
2022/06/13 10:10:00;;;;;;;12.40;2.10;;;16.30;98.30;;;;;;5061574;28;20105;-72
2022/06/13 10:12:51;;;;;;;10.35;2.60;;;15.80;99.90;;;;;;5052180;28;20484;-68
2022/06/13 10:15:36;;;;;;;12.48;2.17;;;15.10;99.90;;;;;;5062525;28;20491;-60
2022/06/13 10:18:27;;;;;;;7.32;1.77;;;14.80;99.90;;;;;;5036928;28;20059;-67
2022/06/13 10:21:09;;;;;;;9.77;2.10;;;14.60;99.90;;;;;;5050194;28;20092;-64
2022/06/13 10:23:35;;;;;;;8.25;1.88;;;14.60;99.90;;;;;;5066743;28;20040;-72
2022/06/13 10:26:22;;;;;;;9.55;1.67;;;14.50;99.90;;;;;;5077363;28;20040;-73
2022/06/13 10:29:11;;;;;;;5.57;1.95;;;14.60;99.90;;;;;;5066536;28;20091;-67
2022/06/13 10:31:55;;;;;;;11.93;1.80;;;14.80;99.90;;;;;;5055260;28;20051;-70
2022/06/13 10:34:43;;;;;;;12.20;2.38;;;15.00;99.90;;;;;;5048045;28;20246;-68
2022/06/13 10:37:25;;;;;;;7.32;2.33;;;15.30;99.90;;;;;;5063153;28;20051;-72
2022/06/13 10:39:55;;;;;;;7.55;1.92;;;15.50;99.90;;;;;;5049478;28;20069;-69
2022/06/13 10:42:24;;;;;;;3.78;1.58;;;16.10;99.90;;;;;;5058792;28;20079;-68
2022/06/13 10:44:50;;;;;;;13.85;2.35;;;16.10;99.90;;;;;;5051313;28;20040;-64
2022/06/13 10:47:41;;;;;;;4.97;1.98;;;16.00;99.90;;;;;;5041813;28;20049;-70
2022/06/13 10:50:16;;;;;;;10.05;1.75;;;16.00;99.90;;;;;;5068188;28;20054;-65
2022/06/13 10:52:47;;;;;;;8.25;2.13;;;16.00;99.90;;;;;;5050928;28;20051;-66
2022/06/13 10:55:19;;;;;;;8.48;2.33;;;16.00;99.90;;;;;;5063738;28;20048;-68
2022/06/13 10:57:59;;;;;;;10.18;1.60;;;16.20;99.90;;;;;;5065415;28;20440;-64
2022/06/13 11:00:27;;;;;;;12.20;1.80;;;16.40;99.90;;;;;;5064715;28;20079;-63
2022/06/13 11:03:10;;;;;;;5.40;2.00;;;16.50;99.40;;;;;;5065879;28;20162;-68
2022/06/13 11:06:00;;;;;;;8.77;1.80;;;16.70;95.30;;;;;;5047160;28;20052;-68
2022/06/13 11:08:30;;;;;;;18.67;3.22;;;17.00;99.90;;;;;;5060630;28;20700;-71
2022/06/13 11:11:04;;;;;;;6.80;1.75;;;17.10;99.90;;;;;;5050150;28;20080;-68
2022/06/13 11:13:37;;;;;;;11.43;1.88;;;17.10;99.90;;;;;;5067313;28;20133;-63
2022/06/13 11:22:40;;;;;;;7.45;2.15;;;16.60;98.00;;;;;;4986267;28;20057;-63
2022/06/13 11:25:17;;;;;;;6.55;1.90;;;16.50;98.90;;;;;;5057624;28;20052;-72
2022/06/13 11:27:46;;;;;;;9.25;2.20;;;16.40;99.40;;;;;;5064122;28;20044;-70
2022/06/13 11:30:18;;;;;;;8.63;1.73;;;16.40;99.90;;;;;;5061262;28;20494;-63
2022/06/13 11:33:21;;;;;;;16.30;2.53;;;16.50;99.90;;;;;;5065206;28;20048;-66
2022/06/13 11:35:47;;;;;;;10.93;2.17;;;16.70;99.90;;;;;;5066366;28;20534;-61
2022/06/13 11:38:21;;;;;;;10.50;2.05;;;16.50;98.90;;;;;;5066035;28;20169;-67
2022/06/13 11:41:11;;;;;;;12.23;2.60;;;16.50;98.80;;;;;;5062337;28;20055;-65
2022/06/13 11:43:37;;;;;;;;;;;16.80;99.70;;;;;;5065763;28;20056;-65
2022/06/13 11:46:07;;;;;;;11.85;2.17;;;16.90;99.40;;;;;;5062903;28;20301;-69
2022/06/13 11:48:34;;;;;;;12.30;2.08;;;17.10;99.90;;;;;;5066088;28;20102;-69
2022/06/13 11:51:06;;;;;;;8.38;1.80;;;17.20;96.00;;;;;;5048704;28;20051;-64
2022/06/13 11:53:39;;;;;;;7.32;1.50;;;17.30;96.80;;;;;;5060258;28;20044;-61
2022/06/13 11:56:10;;;;;;;6.25;1.80;;;17.40;99.90;;;;;;5061687;28;20505;-71
2022/06/13 11:58:45;;;;;;;7.60;1.83;;;17.40;90.50;;;;;;5062776;28;20093;-62
2022/06/13 12:01:21;;;;;;;4.97;1.23;;;17.30;89.90;;;;;;5082401;28;20039;-65
2022/06/13 12:03:58;;;;;;;4.60;1.52;;;17.10;93.40;;;;;;5065132;28;20083;-61
2022/06/13 12:06:24;;;;;;;5.63;1.30;;;17.00;92.80;;;;;;5046025;28;20036;-64
2022/06/13 12:08:58;;;;;;;9.73;1.75;;;16.90;93.80;;;;;;5064701;28;20044;-70
2022/06/13 12:11:24;;;;;;;9.75;1.95;;;16.70;92.00;;;;;;5062849;28;20048;-70
2022/06/13 12:13:52;;;;;;;5.93;1.67;;;16.70;99.70;;;;;;5065429;28;20046;-64
2022/06/13 12:16:44;;;;;;;7.32;1.50;;;16.50;95.60;;;;;;5065068;28;20445;-70
2022/06/13 12:19:33;;;;;;;4.22;1.15;;;16.50;98.80;;;;;;5063649;28;20394;-73
2022/06/13 12:22:11;;;;;;;4.50;1.48;;;16.80;94.60;;;;;;5081192;28;20559;-70
2022/06/13 12:25:15;;;;;;;4.15;1.55;;;17.20;96.00;;;;;;5064208;28;20109;-62
2022/06/13 12:28:06;;;;;;;5.63;1.23;;;17.30;92.10;;;;;;5063666;28;20047;-64
2022/06/13 12:30:51;;;;;;;3.20;1.25;;;17.50;91.80;;;;;;5064765;28;20119;-67
2022/06/13 12:33:26;;;;;;;3.97;1.30;;;17.50;92.00;;;;;;5046127;28;20058;-67
2022/06/13 12:36:36;;;;;;;6.60;1.38;;;17.60;80.90;;;;;;5063751;28;20040;-70
2022/06/13 12:39:37;;;;;;;3.35;1.00;;;17.40;82.80;;;;;;5049481;28;20158;-69
2022/06/13 12:42:37;;;;;;;8.10;1.48;;;17.20;91.00;;;;;;5064441;28;20048;-71
2022/06/13 12:45:37;;;;;;;6.30;1.77;;;17.20;91.30;;;;;;5063637;28;20084;-63
2022/06/13 12:48:41;;;;;;;4.40;1.10;;;17.20;99.90;;;;;;5061347;28;20052;-65
2022/06/13 12:51:24;;;;;;;6.13;1.20;;;17.30;91.30;;;;;;5061966;28;20044;-60
2022/06/13 12:53:56;;;;;;;9.27;1.75;;;17.10;94.70;;;;;;5054231;28;20156;-68
2022/06/13 12:56:47;;;;;;;7.78;1.98;;;16.90;96.90;;;;;;5066336;28;20096;-68
2022/06/13 12:59:29;;;;;;;7.28;1.50;;;16.70;94.10;;;;;;5052831;28;20131;-71
2022/06/13 13:02:01;;;;;;;5.55;1.45;;;16.80;91.80;;;;;;5065982;28;20063;-65
2022/06/13 13:04:36;;;;;;;7.95;2.03;;;16.70;93.30;;;;;;5083961;28;20059;-69
2022/06/13 13:07:20;;;;;;;5.00;1.35;;;16.80;96.60;;;;;;5063075;28;20036;-67
2022/06/13 13:09:54;;;;;;;4.93;1.30;;;16.70;93.10;;;;;;5078654;28;20139;-66
2022/06/13 13:12:40;;;;;;;7.03;1.30;;;16.60;95.50;;;;;;5061781;28;20538;-65
2022/06/13 13:15:20;;;;;;;10.18;1.60;;;16.70;98.30;;;;;;5065030;28;20047;-67
2022/06/13 13:17:58;;;;;;;7.18;1.85;;;17.00;96.70;;;;;;5062320;28;20122;-68
2022/06/13 13:20:55;;;;;;;7.25;1.33;;;17.10;92.70;;;;;;5047333;28;20060;-70
2022/06/13 13:23:50;;;;;;;8.85;1.30;;;17.20;96.30;;;;;;5062116;28;20059;-69
2022/06/13 13:26:47;;;;;;;4.95;1.35;;;17.20;92.70;;;;;;5045057;28;20237;-73
2022/06/13 13:29:21;;;;;;;4.15;1.10;;;17.30;90.80;;;;;;5065505;28;20138;-65
2022/06/13 13:31:53;;;;;;;8.30;1.40;;;17.30;88.00;;;;;;5062657;28;20048;-63
2022/06/13 13:34:42;;;;;;;4.93;1.50;;;17.30;94.40;;;;;;5065039;28;20040;-71
2022/06/13 13:37:29;;;;;;;8.83;1.60;;;17.30;91.60;;;;;;5066023;28;20139;-71
2022/06/13 13:40:22;;;;;;;2.28;1.00;;;17.20;80.00;;;;;;5057124;28;20056;-62
2022/06/13 13:42:51;;;;;;;6.10;1.35;;;17.00;86.90;;;;;;5047019;28;20109;-63
2022/06/13 13:45:55;;;;;;;;;;;16.80;90.80;;;;;;5057389;28;20096;-69